KTZR

Details ICAO KTZR
Name BOLTON FLD
Region United States
Timezone America/New_York (UTC-5.0)
Plans Departing 7
Arriving 2
Stats Elevation 905 ft / 276 m (AMSL)
Location 39.901168° -83.136909°
Runways 1
Magnetic Variation 7.001° W
Sunrise 2017-12-17 12:49:49 UTC / 2017-12-17 07:49:49 Local
Sunset 2017-12-17 22:10:29 UTC / 2017-12-17 17:10:29 Local
Advertisement - Login to hide

Runways

ID Width Length Bearing (true) Bearing (mag) Surface Threshold Offset Overrun Length
04 98 ft / 30 m 5,504 ft / 1,677 m 32.07° 39.07° Asphalt 0 ft / 0 m 0 ft / 0 m
22 98 ft / 30 m 5,504 ft / 1,677 m 212.08° 219.08° Asphalt 0 ft / 0 m 0 ft / 0 m

Approach Navaids

Runway Type Ident Frequency Range Bearing (true) Bearing (mag) Slope Elevation
04 Localiser IBUZ 111.70 MHz 18 nm / 33 km 32.08° 39.08° - 905 ft / 276 m (AMSL)
04 Glidescope IBUZ 111.70 MHz 10 nm / 19 km 32.07° 39.07° 3.00° 903 ft / 275 m (AMSL)

Map

Weather


0- 5 10 15 20 25 30 35+ Temperature / ° C

Clouds and Precipitation
Forecast for 2017-12-18 00:00 UTC. Updated 30 minutes ago

Ground ~20,000 ft ~40,000 ft Winds

METAR

KTZR 172247Z 16003KT 10SM BKN075 OVC080 04/00 A3009

TAF

Not found

Frequencies

Recorded 135.92 MHz AWOS 3
Unicom 122.95 MHz UNICOM
Tower 128.10 MHz TWR
Approach 134.35 MHz COLUMBUS APP/DEP
Unicom 128.10 MHz CTAF
Ground 121.80 MHz GND
Approach 132.30 MHz COLUMBUS APP/DEP
Warning: Do not use this data for real-world aviation or navigation. No guarantee of current accuracy is given.